Time;durP1;ratioP1;P1;durP2;ratioP2;P2;SDS_P1;SDS_P2;PMS_P1;PMS_P2;Temp;Humidity;BMP_temperature;BMP_pressure;BME280_temperature;BME280_humidity;BME280_pressure;Samples;Min_cycle;Max_cycle;Signal;HPM_P1;HPM_P2
2023/04/21 00:01:28;;;;;;;;;;;;;;;6.94;100.00;101535.16;4916739;28;19926;-73
2023/04/21 00:03:54;;;;;;;;;;;;;;;6.96;100.00;101534.13;4935798;28;19932;-74
2023/04/21 00:06:21;;;;;;;;;;;;;;;6.94;100.00;101524.47;4922792;28;19923;-74
2023/04/21 00:08:46;;;;;;;;;;;;;;;6.92;100.00;101519.19;4934922;28;19969;-74
2023/04/21 00:11:13;;;;;;;;;;;;;;;6.92;100.00;101518.34;4906765;28;20013;-74
2023/04/21 00:13:39;;;;;;;;;;;;;;;6.97;100.00;101502.97;4938551;28;20437;-73
2023/04/21 00:16:04;;;;;;;;;;;;;;;6.90;100.00;101497.94;4918791;28;20339;-74
2023/04/21 00:18:30;;;;;;;;;;;;;;;6.97;100.00;101500.28;4937132;28;20086;-74
2023/04/21 00:20:55;;;;;;;;;;;;;;;6.89;100.00;101490.00;4936280;28;19949;-74
2023/04/21 00:23:21;;;;;;;;;;;;;;;6.87;100.00;101497.25;4937161;28;19922;-74
2023/04/21 00:25:46;;;;;;;;;;;;;;;6.92;100.00;101479.16;4923923;28;19922;-74
2023/04/21 00:28:11;;;;;;;;;;;;;;;6.95;100.00;101479.00;4903250;28;19964;-74
2023/04/21 00:30:36;;;;;;;;;;;;;;;6.92;100.00;101467.63;4921239;28;19926;-74
2023/04/21 00:33:01;;;;;;;;;;;;;;;6.93;100.00;101480.88;4935818;28;20053;-74
2023/04/21 00:35:27;;;;;;;;;;;;;;;6.89;100.00;101476.63;4918371;28;19926;-74
2023/04/21 00:37:52;;;;;;;;;;;;;;;6.89;100.00;101481.97;4919113;29;19926;-74
2023/04/21 00:40:17;;;;;;;;;;;;;;;6.89;100.00;101482.84;4916688;28;20013;-74
2023/04/21 00:42:43;;;;;;;;;;;;;;;6.90;100.00;101478.38;4917980;29;19926;-74
2023/04/21 00:45:09;;;;;;;;;;;;;;;6.88;100.00;101488.28;4921018;29;19922;-74
2023/04/21 00:47:34;;;;;;;;;;;;;;;6.86;100.00;101483.00;4938180;28;20774;-74
2023/04/21 00:50:00;;;;;;;;;;;;;;;6.83;100.00;101480.50;4921203;29;19930;-74
2023/04/21 00:52:25;;;;;;;;;;;;;;;6.85;100.00;101489.28;4930668;28;19926;-74
2023/04/21 00:54:50;;;;;;;;;;;;;;;6.83;100.00;101480.50;4925851;28;20381;-74
2023/04/21 00:57:15;;;;;;;;;;;;;;;6.88;100.00;101473.13;4919157;28;20361;-74
2023/04/21 00:59:42;;;;;;;;;;;;;;;6.88;100.00;101472.28;4921959;28;19918;-74
2023/04/21 01:02:07;;;;;;;;;;;;;;;6.87;100.00;101471.41;4908257;28;20338;-74
2023/04/21 01:04:37;;;;;;;;;;;;;;;6.79;100.00;101472.75;4924580;28;19923;-75
2023/04/21 01:07:03;;;;;;;;;;;;;;;6.67;100.00;101447.56;4936139;28;19922;-74
2023/04/21 01:09:28;;;;;;;;;;;;;;;6.88;100.00;101457.09;4938136;28;19923;-75
2023/04/21 01:12:03;;;;;;;;;;;;;;;6.84;100.00;101468.88;4938049;28;19930;-75
2023/04/21 01:14:28;;;;;;;;;;;;;;;6.90;100.00;101465.91;4923831;28;19922;-74
2023/04/21 01:16:54;;;;;;;;;;;;;;;6.87;100.00;101454.53;4906077;28;19922;-75
2023/04/21 01:19:19;;;;;;;;;;;;;;;6.91;100.00;101458.75;4916193;28;19918;-75
2023/04/21 01:21:44;;;;;;;;;;;;;;;6.93;100.00;101456.84;4921193;28;19926;-74
2023/04/21 01:24:10;;;;;;;;;;;;;;;6.94;100.00;101455.06;4936963;28;19923;-75
2023/04/21 01:26:36;;;;;;;;;;;;;;;6.94;100.00;101439.03;4923191;28;20254;-74
2023/04/21 01:29:01;;;;;;;;;;;;;;;6.96;100.00;101448.69;4932392;28;19929;-75
2023/04/21 01:31:26;;;;;;;;;;;;;;;6.77;100.00;101447.94;4919808;28;20269;-74
2023/04/21 01:33:51;;;;;;;;;;;;;;;6.81;100.00;101463.69;4920507;29;19949;-75
2023/04/21 01:36:16;;;;;;;;;;;;;;;6.83;100.00;101460.97;4930200;28;19922;-75
2023/04/21 01:38:42;;;;;;;;;;;;;;;6.89;100.00;101465.97;4938059;28;20465;-75
2023/04/21 01:41:07;;;;;;;;;;;;;;;6.88;100.00;101458.94;4924371;28;20368;-75
2023/04/21 01:43:32;;;;;;;;;;;;;;;6.92;100.00;101457.78;4938269;28;19969;-75
2023/04/21 01:45:58;;;;;;;;;;;;;;;6.98;100.00;101452.13;4937294;28;20277;-74
2023/04/21 01:48:23;;;;;;;;;;;;;;;6.88;100.00;101449.09;4952701;28;19926;-76
2023/04/21 01:50:48;;;;;;;;;;;;;;;6.95;100.00;101448.78;4950682;28;20341;-76
2023/04/21 01:53:13;;;;;;;;;;;;;;;6.98;100.00;101445.94;4936447;28;20357;-76
2023/04/21 01:55:39;;;;;;;;;;;;;;;6.97;100.00;101445.06;4939304;28;20400;-76
2023/04/21 01:58:04;;;;;;;;;;;;;;;6.93;100.00;101438.16;4953105;28;19922;-76
2023/04/21 02:00:29;;;;;;;;;;;;;;;6.99;100.00;101431.66;4935963;28;19925;-75
2023/04/21 02:02:54;;;;;;;;;;;;;;;6.87;100.00;101419.81;4953905;28;20016;-75
2023/04/21 02:05:20;;;;;;;;;;;;;;;6.94;100.00;101428.38;4952819;28;19933;-74
2023/04/21 02:07:45;;;;;;;;;;;;;;;6.89;100.00;101425.91;4952132;28;19929;-75
2023/04/21 02:10:10;;;;;;;;;;;;;;;6.95;100.00;101414.06;4940297;28;20428;-75
2023/04/21 02:12:36;;;;;;;;;;;;;;;6.93;100.00;101415.97;4953802;28;20388;-75
2023/04/21 02:15:01;;;;;;;;;;;;;;;6.92;100.00;101416.91;4954191;28;19922;-75
2023/04/21 02:17:26;;;;;;;;;;;;;;;6.97;100.00;101418.38;4954580;28;19922;-75
2023/04/21 02:19:51;;;;;;;;;;;;;;;6.98;100.00;101419.25;4958193;28;20511;-75
2023/04/21 02:22:17;;;;;;;;;;;;;;;7.00;100.00;101412.88;4953945;28;19965;-76
2023/04/21 02:24:42;;;;;;;;;;;;;;;6.98;100.00;101422.78;4942344;28;20138;-76
2023/04/21 02:27:07;;;;;;;;;;;;;;;6.99;100.00;101413.81;4940105;28;19929;-76
2023/04/21 02:29:32;;;;;;;;;;;;;;;7.03;100.00;101411.84;4955712;28;19958;-76
2023/04/21 02:31:58;;;;;;;;;;;;;;;7.04;100.00;101409.09;4955450;28;20365;-76
2023/04/21 02:34:23;;;;;;;;;;;;;;;7.03;100.00;101419.84;4940293;28;20390;-76
2023/04/21 02:36:48;;;;;;;;;;;;;;;7.02;100.00;101410.09;4942331;28;20386;-75
2023/04/21 02:39:13;;;;;;;;;;;;;;;6.90;100.00;101401.84;4938616;28;20520;-76
2023/04/21 02:41:39;;;;;;;;;;;;;;;6.97;100.00;101399.69;4951950;28;20400;-75
2023/04/21 02:44:04;;;;;;;;;;;;;;;6.93;100.00;101395.44;4954973;28;19922;-75
2023/04/21 02:46:29;;;;;;;;;;;;;;;6.95;100.00;101398.06;4957004;28;19937;-75
2023/04/21 02:48:55;;;;;;;;;;;;;;;6.96;100.00;101397.97;4941892;28;19933;-74
2023/04/21 02:51:20;;;;;;;;;;;;;;;6.95;100.00;101404.25;4954236;28;20106;-74
2023/04/21 02:53:45;;;;;;;;;;;;;;;6.96;100.00;101403.28;4954030;28;20284;-75
2023/04/21 02:56:10;;;;;;;;;;;;;;;6.92;100.00;101395.53;4955693;28;20379;-74
2023/04/21 02:58:36;;;;;;;;;;;;;;;6.96;100.00;101399.78;4960472;28;20355;-74
2023/04/21 03:01:02;;;;;;;;;;;;;;;6.98;100.00;101390.72;4947427;28;19922;-74
2023/04/21 03:03:27;;;;;;;;;;;;;;;7.04;100.00;101381.53;4944594;28;19929;-75
2023/04/21 03:05:56;;;;;;;;;;;;;;;7.00;100.00;101390.66;4932497;28;19922;-75
2023/04/21 03:08:22;;;;;;;;;;;;;;;6.99;100.00;101391.63;4951505;28;20313;-74
2023/04/21 03:10:47;;;;;;;;;;;;;;;7.00;100.00;101391.50;4951168;28;20369;-75
2023/04/21 03:13:13;;;;;;;;;;;;;;;7.01;100.00;101395.06;4953836;28;20381;-75
2023/04/21 03:15:38;;;;;;;;;;;;;;;7.03;100.00;101391.34;4949471;28;20409;-75
2023/04/21 03:18:03;;;;;;;;;;;;;;;6.97;100.00;101366.81;4956172;28;19972;-74
2023/04/21 03:20:29;;;;;;;;;;;;;;;7.04;100.00;101378.84;4957195;28;19930;-74
2023/04/21 03:22:54;;;;;;;;;;;;;;;7.11;100.00;101376.72;4957931;28;19973;-75
2023/04/21 03:25:19;;;;;;;;;;;;;;;7.04;100.00;101377.06;4940201;28;20013;-75
2023/04/21 03:27:45;;;;;;;;;;;;;;;7.07;100.00;101378.69;4956942;28;20416;-75
2023/04/21 03:30:10;;;;;;;;;;;;;;;7.14;100.00;101382.75;4953157;28;20357;-74
2023/04/21 03:32:35;;;;;;;;;;;;;;;6.95;100.00;101374.88;4954180;28;19922;-75
2023/04/21 03:35:01;;;;;;;;;;;;;;;6.97;100.00;101374.81;4938428;28;19922;-75
2023/04/21 03:37:26;;;;;;;;;;;;;;;7.03;100.00;101371.78;4954475;28;19961;-75
2023/04/21 03:39:51;;;;;;;;;;;;;;;7.05;100.00;101375.22;4956625;28;19953;-75
2023/04/21 03:42:16;;;;;;;;;;;;;;;7.01;100.00;101373.72;4955161;28;19922;-75
2023/04/21 03:44:42;;;;;;;;;;;;;;;6.98;100.00;101365.84;4957061;28;19928;-75
2023/04/21 03:47:08;;;;;;;;;;;;;;;6.92;100.00;101367.03;4956054;28;19928;-75
2023/04/21 03:49:33;;;;;;;;;;;;;;;6.95;100.00;101355.34;4938591;28;19926;-75
2023/04/21 03:51:58;;;;;;;;;;;;;;;6.82;100.00;101364.00;4957484;28;20310;-75
2023/04/21 03:54:24;;;;;;;;;;;;;;;6.80;100.00;101371.22;4956709;28;20045;-74
2023/04/21 03:56:49;;;;;;;;;;;;;;;6.84;100.00;101366.59;4937547;28;19922;-75
2023/04/21 03:59:14;;;;;;;;;;;;;;;6.81;100.00;101370.28;4951927;28;19976;-76
2023/04/21 04:01:41;;;;;;;;;;;;;;;6.83;100.00;101370.22;4954584;28;20463;-77
2023/04/21 04:04:06;;;;;;;;;;;;;;;6.79;100.00;101361.50;4935348;28;19922;-76
2023/04/21 04:06:32;;;;;;;;;;;;;;;6.77;100.00;101370.53;4955487;28;19961;-76
2023/04/21 04:08:57;;;;;;;;;;;;;;;6.74;100.00;101364.41;4939553;28;19929;-75
2023/04/21 04:11:22;;;;;;;;;;;;;;;6.73;100.00;101362.69;4956260;28;19921;-75
2023/04/21 04:13:47;;;;;;;;;;;;;;;6.68;100.00;101358.56;4956190;28;20320;-76
2023/04/21 04:16:12;;;;;;;;;;;;;;;6.65;100.00;101361.38;4943147;28;19922;-75
2023/04/21 04:18:38;;;;;;;;;;;;;;;6.66;100.00;101357.75;4923601;28;20333;-76
2023/04/21 04:21:06;;;;;;;;;;;;;;;6.60;100.00;101372.31;4953398;28;20045;-75
2023/04/21 04:23:31;;;;;;;;;;;;;;;6.52;100.00;101367.34;4953417;28;19988;-75
2023/04/21 04:25:57;;;;;;;;;;;;;;;6.53;100.00;101373.56;4951875;28;19921;-75
2023/04/21 04:28:22;;;;;;;;;;;;;;;6.59;100.00;101367.91;4923051;28;20792;-75
2023/04/21 04:30:47;;;;;;;;;;;;;;;6.56;100.00;101368.91;4934232;28;20009;-75
2023/04/21 04:33:12;;;;;;;;;;;;;;;6.53;100.00;101370.88;4950454;28;19969;-75
2023/04/21 04:35:38;;;;;;;;;;;;;;;6.53;100.00;101371.75;4954196;28;19933;-75
2023/04/21 04:38:03;;;;;;;;;;;;;;;6.54;100.00;101370.78;4950454;28;19973;-75
2023/04/21 04:40:29;;;;;;;;;;;;;;;6.54;100.00;101365.47;4939464;28;20036;-75
2023/04/21 04:42:54;;;;;;;;;;;;;;;6.52;100.00;101361.16;4936940;28;19930;-75
2023/04/21 04:45:21;;;;;;;;;;;;;;;6.55;100.00;101359.19;4951689;28;19926;-75
2023/04/21 04:47:46;;;;;;;;;;;;;;;6.59;100.00;101355.41;4952970;28;19922;-75
2023/04/21 04:50:11;;;;;;;;;;;;;;;6.58;100.00;101371.53;4953221;28;19926;-75
2023/04/21 04:52:36;;;;;;;;;;;;;;;6.66;100.00;101371.09;4953280;28;20376;-75
2023/04/21 04:55:03;;;;;;;;;;;;;;;6.68;100.00;101371.91;4953576;28;20005;-76
2023/04/21 04:57:28;;;;;;;;;;;;;;;6.71;100.00;101372.59;4932667;28;20364;-75
2023/04/21 04:59:56;;;;;;;;;;;;;;;6.68;100.00;101371.91;4953101;28;20151;-75
2023/04/21 05:02:22;;;;;;;;;;;;;;;6.71;100.00;101374.41;4953043;28;20415;-75
2023/04/21 05:04:48;;;;;;;;;;;;;;;6.78;100.00;101373.09;4950250;28;19926;-74
2023/04/21 05:07:13;;;;;;;;;;;;;;;6.79;100.00;101374.00;4948958;28;21868;-75
2023/04/21 05:09:38;;;;;;;;;;;;;;;6.79;100.00;101372.16;4951086;28;19933;-75
2023/04/21 05:12:04;;;;;;;;;;;;;;;6.83;100.00;101379.06;4950689;28;19961;-75
2023/04/21 05:14:30;;;;;;;;;;;;;;;6.82;100.00;101380.00;4950510;28;20022;-75
2023/04/21 05:16:55;;;;;;;;;;;;;;;6.78;100.00;101383.78;4951863;28;20400;-75
2023/04/21 05:19:20;;;;;;;;;;;;;;;6.82;100.00;101387.16;4925969;28;19926;-75
2023/04/21 05:21:45;;;;;;;;;;;;;;;6.80;100.00;101391.72;4936494;28;20511;-74
2023/04/21 05:24:10;;;;;;;;;;;;;;;6.84;100.00;101390.63;4935890;28;19929;-75
2023/04/21 05:26:36;;;;;;;;;;;;;;;6.86;100.00;101391.41;4949887;28;19925;-75
2023/04/21 05:29:01;;;;;;;;;;;;;;;6.88;100.00;101393.03;4954327;28;19929;-75
2023/04/21 05:31:26;;;;;;;;;;;;;;;6.87;100.00;101393.13;4951341;28;19922;-75
2023/04/21 05:33:52;;;;;;;;;;;;;;;6.95;100.00;101398.91;4957469;28;20368;-75
2023/04/21 05:36:19;;;;;;;;;;;;;;;7.04;100.00;101400.22;4948093;28;20365;-74
2023/04/21 05:38:44;;;;;;;;;;;;;;;7.00;100.00;101399.53;4918120;28;19922;-75
2023/04/21 05:41:09;;;;;;;;;;;;;;;7.00;100.00;101412.88;4935370;28;19933;-75
2023/04/21 05:43:35;;;;;;;;;;;;;;;7.08;100.00;101411.59;4941271;28;20448;-75
2023/04/21 05:46:00;;;;;;;;;;;;;;;7.03;100.00;101410.03;4954282;28;20356;-75
2023/04/21 05:48:25;;;;;;;;;;;;;;;6.90;100.00;101403.63;4932860;28;19929;-75
2023/04/21 05:50:51;;;;;;;;;;;;;;;7.05;100.00;101413.50;4920986;28;19957;-76
2023/04/21 05:53:16;;;;;;;;;;;;;;;7.08;100.00;101417.78;4940286;28;20016;-75
2023/04/21 05:55:41;;;;;;;;;;;;;;;7.13;100.00;101417.56;4936000;28;19928;-75
2023/04/21 05:58:06;;;;;;;;;;;;;;;7.22;100.00;101418.88;4937654;28;20029;-75
2023/04/21 06:00:32;;;;;;;;;;;;;;;7.29;100.00;101414.91;4951380;28;19929;-75
2023/04/21 06:02:57;;;;;;;;;;;;;;;7.43;100.00;101412.34;4934651;28;19972;-75
2023/04/21 06:05:22;;;;;;;;;;;;;;;7.59;100.00;101411.47;4935700;28;20144;-75
2023/04/21 06:07:47;;;;;;;;;;;;;;;7.74;100.00;101410.63;4936460;28;20021;-74
2023/04/21 06:10:13;;;;;;;;;;;;;;;7.84;100.00;101405.63;4953145;28;19937;-75
2023/04/21 06:12:38;;;;;;;;;;;;;;;7.94;100.00;101400.59;4949565;28;20020;-74
2023/04/21 06:15:03;;;;;;;;;;;;;;;8.06;100.00;101396.34;4934611;28;20334;-75
2023/04/21 06:17:29;;;;;;;;;;;;;;;8.15;100.00;101406.50;4937754;28;20371;-74
2023/04/21 06:19:54;;;;;;;;;;;;;;;8.19;100.00;101393.81;4952298;28;19926;-75
2023/04/21 06:22:20;;;;;;;;;;;;;;;8.31;100.00;101393.09;4952712;28;19922;-75
2023/04/21 06:24:45;;;;;;;;;;;;;;;8.33;100.00;101393.88;4953357;28;19922;-75
2023/04/21 06:27:13;;;;;;;;;;;;;;;8.34;100.00;101384.88;4936487;28;20327;-76
2023/04/21 06:29:39;;;;;;;;;;;;;;;8.41;100.00;101391.56;4938224;28;19930;-75
2023/04/21 06:32:04;;;;;;;;;;;;;;;8.49;100.00;101392.97;4923163;28;19926;-75
2023/04/21 06:34:29;;;;;;;;;;;;;;;8.39;100.00;101384.59;4937506;28;19984;-74
2023/04/21 06:36:55;;;;;;;;;;;;;;;8.45;100.00;101384.25;4952527;28;20029;-74
2023/04/21 06:39:20;;;;;;;;;;;;;;;8.72;100.00;101390.72;4952045;28;19933;-74
2023/04/21 06:41:45;;;;;;;;;;;;;;;8.89;100.00;101395.88;4955311;28;19922;-75
2023/04/21 06:44:13;;;;;;;;;;;;;;;8.91;100.00;101387.78;4952493;28;19932;-75
2023/04/21 06:46:39;;;;;;;;;;;;;;;9.00;100.00;101395.25;4940330;28;19922;-74
2023/04/21 06:49:05;;;;;;;;;;;;;;;9.06;100.00;101386.78;4941112;28;19928;-75
2023/04/21 06:51:31;;;;;;;;;;;;;;;9.13;100.00;101385.47;4936452;28;19922;-74
2023/04/21 06:53:56;;;;;;;;;;;;;;;9.31;100.00;101382.56;4938192;28;20273;-74
2023/04/21 06:56:21;;;;;;;;;;;;;;;9.36;100.00;101380.44;4935192;28;19926;-75
2023/04/21 06:58:46;;;;;;;;;;;;;;;9.29;100.00;101382.66;4939743;28;19922;-75
2023/04/21 07:01:12;;;;;;;;;;;;;;;9.18;100.00;101385.16;4941284;28;19922;-73
2023/04/21 07:03:37;;;;;;;;;;;;;;;9.41;100.00;101385.50;4944722;28;20189;-74
2023/04/21 07:06:02;;;;;;;;;;;;;;;9.50;100.00;101395.66;4937858;28;19929;-74
2023/04/21 07:08:27;;;;;;;;;;;;;;;9.84;100.00;101387.22;4958278;28;19929;-75
2023/04/21 07:10:52;;;;;;;;;;;;;;;9.84;100.00;101376.50;4941415;28;19933;-74
2023/04/21 07:13:18;;;;;;;;;;;;;;;10.04;100.00;101376.03;4959684;28;19945;-74
2023/04/21 07:15:43;;;;;;;;;;;;;;;10.19;100.00;101376.84;4940871;28;19921;-73
2023/04/21 07:18:08;;;;;;;;;;;;;;;10.00;100.00;101377.22;4940985;28;19969;-75
2023/04/21 07:20:34;;;;;;;;;;;;;;;10.17;100.00;101380.56;4949929;28;19933;-75
2023/04/21 07:22:59;;;;;;;;;;;;;;;9.87;100.00;101385.22;4935977;28;19918;-74
2023/04/21 07:25:24;;;;;;;;;;;;;;;9.87;100.00;101377.16;4940932;28;20020;-74
2023/04/21 07:27:49;;;;;;;;;;;;;;;9.89;100.00;101379.72;4951590;28;19929;-75
2023/04/21 07:30:15;;;;;;;;;;;;;;;10.03;100.00;101382.38;4914801;28;19977;-75
2023/04/21 07:32:40;;;;;;;;;;;;;;;10.13;100.00;101371.88;4912706;28;21170;-75
2023/04/21 07:35:05;;;;;;;;;;;;;;;10.01;100.00;101373.56;4949409;28;19957;-74
2023/04/21 07:37:31;;;;;;;;;;;;;;;10.12;100.00;101366.59;4948595;28;19926;-74
2023/04/21 07:39:56;;;;;;;;;;;;;;;10.17;100.00;101361.78;4950840;28;19930;-74
2023/04/21 07:42:21;;;;;;;;;;;;;;;10.34;100.00;101357.94;4951261;28;19922;-74
2023/04/21 07:44:47;;;;;;;;;;;;;;;10.51;100.00;101367.56;4955405;28;19929;-75
2023/04/21 07:47:12;;;;;;;;;;;;;;;10.53;100.00;101364.75;4951332;28;20391;-74
2023/04/21 07:49:38;;;;;;;;;;;;;;;10.72;100.00;101369.72;4934451;28;19931;-75
2023/04/21 07:52:03;;;;;;;;;;;;;;;10.88;100.00;101372.19;4953882;28;19929;-75
2023/04/21 07:54:28;;;;;;;;;;;;;;;10.83;100.00;101369.84;4936655;28;19922;-75
2023/04/21 07:56:53;;;;;;;;;;;;;;;10.76;100.00;101380.13;4920207;28;20554;-74
2023/04/21 07:59:19;;;;;;;;;;;;;;;10.78;100.00;101377.34;4932220;28;20719;-75
2023/04/21 08:01:44;;;;;;;;;;;;;;;10.84;100.00;101370.69;4950174;28;20282;-74
2023/04/21 08:04:09;;;;;;;;;;;;;;;10.79;100.00;101371.84;4952094;28;19922;-74
2023/04/21 08:06:35;;;;;;;;;;;;;;;10.86;100.00;101366.91;4936092;28;20005;-75
2023/04/21 08:09:00;;;;;;;;;;;;;;;10.90;100.00;101372.94;4951212;28;20337;-74
2023/04/21 08:11:27;;;;;;;;;;;;;;;10.90;100.00;101373.78;4934976;28;20196;-74
2023/04/21 08:13:52;;;;;;;;;;;;;;;10.77;100.00;101372.94;4934671;28;19930;-74
2023/04/21 08:16:17;;;;;;;;;;;;;;;10.91;100.00;101367.44;4952177;28;19922;-75
2023/04/21 08:18:43;;;;;;;;;;;;;;;11.06;100.00;101362.81;4950839;28;19922;-74
2023/04/21 08:21:08;;;;;;;;;;;;;;;11.03;100.00;101368.41;4956493;28;19921;-75
2023/04/21 08:23:33;;;;;;;;;;;;;;;11.24;100.00;101371.38;4954602;28;19929;-75
2023/04/21 08:25:59;;;;;;;;;;;;;;;11.31;100.00;101361.03;4940531;28;20373;-75
2023/04/21 08:28:24;;;;;;;;;;;;;;;11.27;100.00;101359.53;4937131;28;20339;-74
2023/04/21 08:30:49;;;;;;;;;;;;;;;11.47;100.00;101355.38;4951554;28;19930;-74
2023/04/21 08:33:15;;;;;;;;;;;;;;;11.52;100.00;101352.38;4947773;28;19982;-74
2023/04/21 08:35:40;;;;;;;;;;;;;;;11.53;100.00;101349.56;4936408;28;19968;-74
2023/04/21 08:38:07;;;;;;;;;;;;;;;11.49;100.00;101353.44;4939937;28;19926;-76
2023/04/21 08:40:33;;;;;;;;;;;;;;;12.08;100.00;101357.19;4937869;28;20372;-75
2023/04/21 08:42:58;;;;;;;;;;;;;;;11.83;100.00;101332.13;4953157;28;20013;-74
2023/04/21 08:45:23;;;;;;;;;;;;;;;11.98;100.00;101348.94;4952303;28;20354;-75
2023/04/21 08:47:48;;;;;;;;;;;;;;;12.20;100.00;101355.41;4948719;28;19922;-74
2023/04/21 08:50:14;;;;;;;;;;;;;;;12.08;100.00;101354.50;4931154;28;19973;-75
2023/04/21 08:52:39;;;;;;;;;;;;;;;12.30;100.00;101345.66;4937113;28;20073;-75
2023/04/21 08:55:06;;;;;;;;;;;;;;;12.69;100.00;101348.03;4943966;28;20391;-76
2023/04/21 08:57:31;;;;;;;;;;;;;;;12.69;100.00;101344.47;4943375;28;19965;-74
2023/04/21 08:59:56;;;;;;;;;;;;;;;12.82;100.00;101337.16;4956873;28;20032;-75
2023/04/21 09:02:22;;;;;;;;;;;;;;;13.08;100.00;101341.41;4960570;28;19922;-74
2023/04/21 09:04:49;;;;;;;;;;;;;;;13.26;100.00;101344.47;4958193;28;20569;-76
2023/04/21 09:07:47;;;;;;;;;;;;;;;13.13;100.00;101331.13;4942574;28;19949;-75
2023/04/21 09:10:13;;;;;;;;;;;;;;;13.64;100.00;101325.16;4911956;28;20400;-76
2023/04/21 09:12:39;;;;;;;;;;;;;;;13.98;100.00;101326.03;4931225;28;19978;-74
2023/04/21 09:15:05;;;;;;;;;;;;;;;14.07;100.00;101331.50;4949538;28;19953;-75
2023/04/21 09:17:35;;;;;;;;;;;;;;;14.06;100.00;101340.56;4949088;28;19922;-72
2023/04/21 09:20:20;;;;;;;;;;;;;;;13.93;100.00;101339.88;4955311;28;20373;-75
2023/04/21 09:22:48;;;;;;;;;;;;;;;13.73;100.00;101331.63;4933902;28;19926;-71
2023/04/21 09:25:18;;;;;;;;;;;;;;;13.55;100.00;101330.47;4948510;28;19941;-71
2023/04/21 09:27:43;;;;;;;;;;;;;;;13.91;100.00;101336.44;4931005;28;19922;-71
2023/04/21 09:30:08;;;;;;;;;;;;;;;14.31;100.00;101340.31;4938181;28;20188;-74
2023/04/21 09:32:40;;;;;;;;;;;;;;;13.92;100.00;101333.63;4942012;28;19976;-76
2023/04/21 09:35:09;;;;;;;;;;;;;;;13.53;100.00;101340.53;4948026;28;19922;-74
2023/04/21 09:37:34;;;;;;;;;;;;;;;13.25;100.00;101340.06;4941160;28;20907;-74
2023/04/21 09:40:00;;;;;;;;;;;;;;;13.24;100.00;101335.66;4954652;28;19926;-74
2023/04/21 09:42:29;;;;;;;;;;;;;;;13.41;100.00;101342.41;4938905;28;19925;-74
2023/04/21 09:44:54;;;;;;;;;;;;;;;13.33;100.00;101343.00;4952639;28;19933;-73
2023/04/21 09:47:19;;;;;;;;;;;;;;;13.35;100.00;101330.25;4945009;28;20318;-74
2023/04/21 09:49:45;;;;;;;;;;;;;;;13.32;100.00;101330.50;4927906;28;19984;-74
2023/04/21 09:52:11;;;;;;;;;;;;;;;13.42;100.00;101331.47;4922543;28;19922;-74
2023/04/21 09:54:38;;;;;;;;;;;;;;;13.34;100.00;101332.06;4931617;28;19944;-75
2023/04/21 09:57:03;;;;;;;;;;;;;;;13.63;100.00;101323.44;4944040;28;19938;-73
2023/04/21 09:59:30;;;;;;;;;;;;;;;13.61;100.00;101317.31;4948912;28;20012;-74
2023/04/21 10:01:55;;;;;;;;;;;;;;;13.80;100.00;101316.63;4942919;28;21369;-73
2023/04/21 10:04:22;;;;;;;;;;;;;;;13.78;100.00;101317.72;4947477;28;20397;-73
2023/04/21 10:06:47;;;;;;;;;;;;;;;13.48;100.00;101332.81;4930464;28;19926;-72
2023/04/21 10:09:12;;;;;;;;;;;;;;;13.39;100.00;101317.34;4936886;28;19992;-72
2023/04/21 10:11:37;;;;;;;;;;;;;;;13.69;100.00;101313.13;4943067;28;19922;-73
2023/04/21 10:14:03;;;;;;;;;;;;;;;13.31;100.00;101324.22;4962220;28;19929;-73
2023/04/21 10:16:28;;;;;;;;;;;;;;;13.31;100.00;101320.69;4934383;28;19922;-73
2023/04/21 10:18:53;;;;;;;;;;;;;;;13.52;100.00;101312.69;4934619;28;19985;-73
2023/04/21 10:21:20;;;;;;;;;;;;;;;13.34;100.00;101315.88;4931744;28;20236;-73
2023/04/21 10:23:48;;;;;;;;;;;;;;;13.88;100.00;101310.59;4934335;28;20293;-73
2023/04/21 10:26:14;;;;;;;;;;;;;;;13.59;100.00;101316.59;4939725;28;20850;-74
2023/04/21 10:28:45;;;;;;;;;;;;;;;13.82;100.00;101315.66;4953007;28;19929;-74
2023/04/21 10:31:19;;;;;;;;;;;;;;;14.15;100.00;101308.38;4950816;28;20533;-73
2023/04/21 10:34:03;;;;;;;;;;;;;;;14.69;100.00;101306.44;4960349;28;19922;-73
2023/04/21 10:36:29;;;;;;;;;;;;;;;14.76;100.00;101306.75;4957101;28;20020;-72
2023/04/21 10:38:57;;;;;;;;;;;;;;;15.39;100.00;101289.44;4953757;28;20403;-73
2023/04/21 10:41:29;;;;;;;;;;;;;;;15.65;100.00;101289.72;4952413;28;21584;-73
2023/04/21 10:43:58;;;;;;;;;;;;;;;16.51;100.00;101292.66;4950619;28;19957;-72
2023/04/21 10:46:33;;;;;;;;;;;;;;;16.67;91.02;101286.59;4941328;28;20186;-73
2023/04/21 10:49:08;;;;;;;;;;;;;;;16.15;93.05;101279.78;4956745;28;19921;-72
2023/04/21 10:51:52;;;;;;;;;;;;;;;16.02;93.88;101278.19;4929082;28;19926;-71
2023/04/21 10:54:20;;;;;;;;;;;;;;;16.53;89.35;101277.94;4955616;28;20012;-72
2023/04/21 10:56:45;;;;;;;;;;;;;;;16.69;81.04;101284.56;4943418;28;20432;-72
2023/04/21 10:59:10;;;;;;;;;;;;;;;16.63;82.55;101272.47;4938345;28;20433;-72
2023/04/21 11:01:38;;;;;;;;;;;;;;;16.75;84.87;101268.59;4937577;28;19924;-70
2023/04/21 11:04:03;;;;;;;;;;;;;;;16.07;86.99;101257.97;4948621;28;20025;-72
2023/04/21 11:06:29;;;;;;;;;;;;;;;15.49;90.55;101267.78;4939890;28;20224;-71
2023/04/21 11:08:55;;;;;;;;;;;;;;;15.64;91.14;101252.00;4955543;28;20032;-70
2023/04/21 11:11:23;;;;;;;;;;;;;;;16.41;85.99;101262.88;4955919;28;19926;-72
2023/04/21 11:13:48;;;;;;;;;;;;;;;16.72;86.66;101258.03;4949856;28;19965;-72
2023/04/21 11:16:13;;;;;;;;;;;;;;;17.46;83.40;101243.59;4936668;28;19970;-71
2023/04/21 11:18:40;;;;;;;;;;;;;;;17.56;75.06;101224.53;4949682;28;19926;-70
2023/04/21 11:21:23;;;;;;;;;;;;;;;17.89;80.56;101241.94;4952441;28;19933;-71
2023/04/21 11:23:49;;;;;;;;;;;;;;;16.89;82.79;101231.97;4953462;28;19929;-71
2023/04/21 11:26:14;;;;;;;;;;;;;;;18.16;84.08;101223.81;4945835;28;19921;-71
2023/04/21 11:28:43;;;;;;;;;;;;;;;18.67;80.51;101214.91;4956233;28;20028;-71
2023/04/21 11:31:09;;;;;;;;;;;;;;;18.86;73.56;101209.19;4957584;28;20059;-70
2023/04/21 11:33:35;;;;;;;;;;;;;;;18.53;67.10;101200.91;4940217;28;20119;-71
2023/04/21 11:36:04;;;;;;;;;;;;;;;18.20;72.50;101200.75;4957077;28;19922;-70
2023/04/21 11:38:39;;;;;;;;;;;;;;;18.29;69.38;101216.09;4957083;28;19926;-70
2023/04/21 11:41:04;;;;;;;;;;;;;;;17.71;71.61;101208.53;4935001;28;19933;-70
2023/04/21 11:43:30;;;;;;;;;;;;;;;18.11;70.67;101188.16;4937836;28;19926;-70
2023/04/21 11:46:09;;;;;;;;;;;;;;;17.51;73.01;101192.44;4950063;28;19985;-71
2023/04/21 11:48:34;;;;;;;;;;;;;;;17.01;77.86;101186.53;4936118;28;19922;-71
2023/04/21 11:50:59;;;;;;;;;;;;;;;17.06;75.81;101184.22;4951324;28;19937;-71
2023/04/21 11:53:25;;;;;;;;;;;;;;;17.99;70.11;101188.41;4956431;28;19926;-70
2023/04/21 11:55:50;;;;;;;;;;;;;;;18.60;70.33;101176.63;4952204;28;19957;-69
2023/04/21 11:58:16;;;;;;;;;;;;;;;18.59;67.40;101183.09;4952737;28;19926;-70
2023/04/21 12:00:45;;;;;;;;;;;;;;;18.38;64.58;101180.81;4937242;28;19922;-70
2023/04/21 12:03:11;;;;;;;;;;;;;;;18.06;67.49;101179.63;4949757;28;19929;-70
2023/04/21 12:05:36;;;;;;;;;;;;;;;16.97;72.76;101174.28;4955013;28;19928;-70
2023/04/21 12:08:03;;;;;;;;;;;;;;;16.40;74.31;101169.03;4951355;28;19921;-70
2023/04/21 12:10:29;;;;;;;;;;;;;;;16.46;78.52;101173.81;4950003;28;19929;-71
2023/04/21 12:12:55;;;;;;;;;;;;;;;17.03;81.52;101170.09;4952455;28;19922;-70
2023/04/21 12:15:21;;;;;;;;;;;;;;;17.21;81.27;101161.97;4940936;28;19929;-70
2023/04/21 12:17:47;;;;;;;;;;;;;;;16.91;80.92;101161.31;4956667;28;19929;-70
2023/04/21 12:20:16;;;;;;;;;;;;;;;17.33;79.57;101173.44;4953886;28;20490;-70
2023/04/21 12:22:41;;;;;;;;;;;;;;;16.73;80.46;101170.28;4956270;28;19933;-70
2023/04/21 12:25:07;;;;;;;;;;;;;;;16.90;76.79;101157.75;4934657;28;19926;-71
2023/04/21 12:27:33;;;;;;;;;;;;;;;17.75;74.37;101152.91;4954531;28;19922;-71